Time;durP1;ratioP1;P1;durP2;ratioP2;P2;SDS_P1;SDS_P2;PMS_P1;PMS_P2;Temp;Humidity;BMP_temperature;BMP_pressure;BME280_temperature;BME280_humidity;BME280_pressure;Samples;Min_cycle;Max_cycle;Signal;HPM_P1;HPM_P2
2021/06/21 00:00:05;;;;;;;8.05;5.40;;;20.40;86.60;;;;;;4993634;28;20486;-74
2021/06/21 00:02:30;;;;;;;8.35;5.55;;;20.40;85.70;;;;;;4993029;28;20406;-75
2021/06/21 00:04:56;;;;;;;5.43;4.97;;;20.40;86.60;;;;;;4994319;28;20410;-75
2021/06/21 00:07:22;;;;;;;7.97;5.30;;;20.50;87.50;;;;;;5010580;28;20396;-74
2021/06/21 00:09:48;;;;;;;5.63;5.13;;;20.50;88.70;;;;;;5012854;28;20455;-74
2021/06/21 00:12:15;;;;;;;6.70;5.22;;;20.50;86.10;;;;;;5001783;28;20894;-73
2021/06/21 00:14:41;;;;;;;6.50;5.70;;;20.50;85.50;;;;;;5025637;28;20413;-73
2021/06/21 00:17:10;;;;;;;9.63;6.70;;;20.50;85.60;;;;;;4994345;28;20401;-74
2021/06/21 00:19:35;;;;;;;10.20;6.25;;;20.50;86.70;;;;;;5026439;28;20406;-73
2021/06/21 00:22:04;;;;;;;8.30;6.63;;;20.50;87.90;;;;;;4994359;28;20421;-74
2021/06/21 00:24:30;;;;;;;9.90;6.80;;;20.40;87.60;;;;;;4995957;28;20417;-74
2021/06/21 00:26:56;;;;;;;10.40;7.27;;;20.50;90.80;;;;;;5000801;28;20390;-74
2021/06/21 00:29:21;;;;;;;9.30;8.03;;;20.40;91.70;;;;;;4998723;28;20409;-74
2021/06/21 00:31:47;;;;;;;11.60;8.43;;;20.40;92.10;;;;;;4993604;28;20394;-73
2021/06/21 00:34:13;;;;;;;10.13;9.05;;;20.30;93.30;;;;;;4993349;28;20477;-74
2021/06/21 00:36:38;;;;;;;11.17;9.97;;;20.20;95.60;;;;;;4994140;28;20409;-74
2021/06/21 00:39:07;;;;;;;16.30;10.60;;;20.20;98.80;;;;;;4993998;28;20422;-74
2021/06/21 00:41:34;;;;;;;16.88;11.07;;;20.20;98.80;;;;;;4993803;28;20747;-74
2021/06/21 00:44:00;;;;;;;16.73;11.73;;;20.10;99.90;;;;;;4993367;28;20407;-74
2021/06/21 00:46:25;;;;;;;16.52;12.55;;;20.10;99.90;;;;;;4993440;28;20398;-73
2021/06/21 00:48:51;;;;;;;20.42;13.98;;;20.00;99.90;;;;;;4993546;28;20394;-75
2021/06/21 00:51:17;;;;;;;17.50;13.93;;;20.00;99.90;;;;;;4993882;28;20390;-73
2021/06/21 00:53:44;;;;;;;16.67;14.13;;;20.00;99.90;;;;;;4992405;28;20410;-74
2021/06/21 00:56:10;;;;;;;19.02;14.98;;;20.00;99.90;;;;;;4993207;28;20405;-74
2021/06/21 00:58:36;;;;;;;20.75;15.05;;;20.00;99.90;;;;;;4993475;28;20748;-74
2021/06/21 01:01:02;;;;;;;20.20;15.60;;;20.00;99.90;;;;;;4993295;28;20803;-75
2021/06/21 01:03:27;;;;;;;22.88;16.58;;;20.00;99.90;;;;;;4993225;28;20402;-75
2021/06/21 01:05:53;;;;;;;20.50;16.02;;;20.00;99.90;;;;;;5001035;28;20446;-75
2021/06/21 01:08:19;;;;;;;22.73;17.50;;;20.00;99.90;;;;;;5003026;28;20453;-76
2021/06/21 01:10:48;;;;;;;21.07;17.37;;;20.00;99.90;;;;;;5013999;28;20411;-74
2021/06/21 01:13:32;;;;;;;22.77;17.65;;;20.00;99.90;;;;;;4993117;28;20729;-75
2021/06/21 01:16:11;;;;;;;24.48;17.00;;;20.00;99.90;;;;;;4993097;28;20390;-75
2021/06/21 01:18:38;;;;;;;22.45;17.13;;;20.10;99.90;;;;;;4992828;28;20597;-76
2021/06/21 01:21:25;;;;;;;23.63;18.20;;;20.10;99.90;;;;;;4992746;28;20481;-75
2021/06/21 01:24:09;;;;;;;23.48;18.05;;;20.10;99.90;;;;;;4991614;28;20414;-74
2021/06/21 01:26:53;;;;;;;31.40;19.58;;;20.10;99.90;;;;;;4993017;28;20383;-74
2021/06/21 01:29:47;;;;;;;24.63;19.00;;;20.10;99.90;;;;;;4992390;28;20493;-74
2021/06/21 01:32:35;;;;;;;26.05;21.02;;;20.20;99.90;;;;;;4992325;28;20398;-74
2021/06/21 01:35:03;;;;;;;25.58;20.52;;;20.10;99.90;;;;;;4984367;28;20399;-74
2021/06/21 01:37:29;;;;;;;32.37;22.33;;;20.10;99.90;;;;;;4992714;28;20544;-76
2021/06/21 01:39:59;;;;;;;31.67;24.02;;;20.10;99.90;;;;;;4992628;28;20876;-75
2021/06/21 01:42:26;;;;;;;27.25;23.23;;;20.20;99.90;;;;;;4989542;28;20402;-74
2021/06/21 01:45:02;;;;;;;30.73;23.40;;;20.20;99.90;;;;;;4990102;28;20495;-74
2021/06/21 01:47:29;;;;;;;33.55;24.67;;;20.10;99.90;;;;;;4992413;28;20383;-74
2021/06/21 01:49:57;;;;;;;29.20;23.55;;;20.10;99.90;;;;;;4992603;28;20389;-74
2021/06/21 01:52:23;;;;;;;31.38;24.95;;;20.10;99.90;;;;;;4991848;28;20398;-75
2021/06/21 01:54:54;;;;;;;32.33;24.85;;;20.10;99.90;;;;;;4992300;28;20560;-74
2021/06/21 01:57:24;;;;;;;32.17;25.05;;;20.10;99.90;;;;;;4972809;28;20438;-74
2021/06/21 01:59:52;;;;;;;29.90;26.27;;;20.00;99.90;;;;;;4988536;28;20402;-74
2021/06/21 02:02:21;;;;;;;31.25;24.20;;;19.90;99.90;;;;;;4992092;28;20386;-74
2021/06/21 02:04:48;;;;;;;30.55;25.17;;;19.80;99.90;;;;;;4991991;28;20497;-74
2021/06/21 02:07:17;;;;;;;30.67;26.15;;;19.80;99.90;;;;;;4981130;28;20403;-74
2021/06/21 02:09:45;;;;;;;35.63;25.92;;;19.80;99.90;;;;;;5005616;28;20388;-74
2021/06/21 02:12:12;;;;;;;34.90;27.50;;;19.70;99.90;;;;;;4999866;28;20395;-75
2021/06/21 02:14:39;;;;;;;35.13;28.25;;;19.60;99.90;;;;;;4991901;28;20397;-73
2021/06/21 02:17:05;;;;;;;36.63;28.77;;;19.60;99.90;;;;;;4992014;28;20390;-74
2021/06/21 02:19:32;;;;;;;33.67;26.80;;;19.60;99.90;;;;;;4991310;28;20403;-75
2021/06/21 02:21:59;;;;;;;28.97;23.90;;;19.70;99.90;;;;;;4972623;28;20823;-73
2021/06/21 02:24:25;;;;;;;25.57;22.77;;;19.70;99.90;;;;;;4972221;28;20423;-76
2021/06/21 02:26:52;;;;;;;23.63;20.40;;;19.70;99.90;;;;;;4972586;28;20416;-76
2021/06/21 02:29:22;;;;;;;21.15;18.95;;;19.80;99.90;;;;;;4973891;28;20805;-76
2021/06/21 02:31:49;;;;;;;19.40;17.33;;;19.80;99.90;;;;;;4992913;28;20428;-76
2021/06/21 02:34:15;;;;;;;22.00;18.50;;;19.80;99.90;;;;;;4993587;28;20453;-75
2021/06/21 02:36:43;;;;;;;23.60;20.80;;;19.90;99.90;;;;;;4991200;28;20465;-76
2021/06/21 02:39:10;;;;;;;23.85;21.25;;;19.80;99.90;;;;;;4990422;28;20387;-76
2021/06/21 02:41:37;;;;;;;23.75;21.17;;;19.70;99.90;;;;;;4991803;28;20394;-77
2021/06/21 02:44:03;;;;;;;25.15;21.05;;;19.90;99.90;;;;;;4989575;28;20418;-77
2021/06/21 02:46:28;;;;;;;23.73;21.23;;;19.90;99.90;;;;;;4991817;28;20395;-75
2021/06/21 02:48:54;;;;;;;23.95;19.75;;;19.90;99.90;;;;;;4991772;28;20847;-75
2021/06/21 02:51:40;;;;;;;20.38;17.80;;;20.00;99.90;;;;;;4991522;28;20382;-75
2021/06/21 02:54:16;;;;;;;24.48;19.30;;;19.90;99.90;;;;;;4991451;28;20915;-78
2021/06/21 02:56:54;;;;;;;20.52;18.00;;;19.80;99.90;;;;;;4983111;28;20423;-77
2021/06/21 02:59:23;;;;;;;16.75;15.00;;;19.90;99.90;;;;;;4991220;28;20473;-75
2021/06/21 03:01:53;;;;;;;15.40;13.80;;;20.00;99.90;;;;;;4990581;28;20402;-77
2021/06/21 03:04:21;;;;;;;14.55;13.15;;;20.00;99.90;;;;;;4990732;28;20414;-76
2021/06/21 03:06:50;;;;;;;14.65;13.15;;;20.00;99.90;;;;;;5001748;28;20416;-75
2021/06/21 03:09:18;;;;;;;15.18;13.68;;;19.90;99.90;;;;;;4998923;28;20407;-76
2021/06/21 03:11:48;;;;;;;16.15;13.63;;;19.80;99.90;;;;;;4991330;28;20725;-76
2021/06/21 03:14:14;;;;;;;14.90;13.40;;;19.90;99.90;;;;;;4989431;28;20799;-75
2021/06/21 03:16:41;;;;;;;14.40;12.90;;;19.90;99.90;;;;;;4991975;28;20405;-76
2021/06/21 03:19:07;;;;;;;14.60;12.87;;;19.80;99.90;;;;;;4991622;28;20477;-77
2021/06/21 03:21:33;;;;;;;14.37;12.93;;;19.80;99.90;;;;;;4991298;28;21000;-73
2021/06/21 03:23:58;;;;;;;15.47;13.20;;;19.70;99.90;;;;;;4987618;28;20501;-72
2021/06/21 03:26:26;;;;;;;17.43;15.40;;;19.80;99.90;;;;;;4989931;28;20898;-76
2021/06/21 03:28:52;;;;;;;11.02;10.02;;;19.80;99.90;;;;;;4989085;28;20386;-77
2021/06/21 03:31:20;;;;;;;11.40;10.35;;;19.80;99.90;;;;;;5020731;28;20413;-77
2021/06/21 03:33:45;;;;;;;12.43;11.23;;;19.80;99.90;;;;;;4989502;28;20394;-77
2021/06/21 03:36:11;;;;;;;13.05;11.48;;;19.80;99.90;;;;;;4990751;28;20394;-77
2021/06/21 03:38:38;;;;;;;12.60;11.50;;;20.00;99.90;;;;;;5022374;28;20456;-75
2021/06/21 03:41:04;;;;;;;15.10;13.25;;;20.00;99.90;;;;;;5022296;28;20494;-77
2021/06/21 03:43:32;;;;;;;9.75;8.70;;;20.00;99.90;;;;;;4990216;28;20764;-77
2021/06/21 03:46:00;;;;;;;9.40;8.40;;;19.90;99.90;;;;;;4984813;28;20955;-76
2021/06/21 03:48:26;;;;;;;9.77;8.88;;;19.70;99.90;;;;;;4992435;28;20403;-75
2021/06/21 03:50:52;;;;;;;10.20;9.20;;;19.60;99.90;;;;;;4990781;28;20449;-76
2021/06/21 03:53:24;;;;;;;12.20;10.90;;;19.50;99.90;;;;;;4988932;28;20406;-78
2021/06/21 03:55:49;;;;;;;12.07;10.88;;;19.60;99.90;;;;;;4989133;28;20891;-77
2021/06/21 03:58:16;;;;;;;13.20;11.80;;;19.50;99.90;;;;;;4980430;28;20400;-77
2021/06/21 04:00:42;;;;;;;13.35;12.00;;;19.40;99.90;;;;;;4970375;28;20400;-77
2021/06/21 04:03:08;;;;;;;12.65;11.45;;;19.40;99.90;;;;;;4982525;28;20822;-76
2021/06/21 04:05:37;;;;;;;12.15;11.02;;;19.50;99.90;;;;;;4993593;28;20705;-73
2021/06/21 04:08:10;;;;;;;13.10;11.90;;;19.50;99.90;;;;;;5012556;28;20385;-74
2021/06/21 04:10:37;;;;;;;13.95;11.30;;;19.60;99.90;;;;;;4989607;28;20403;-74
2021/06/21 04:13:03;;;;;;;15.20;13.20;;;19.60;99.90;;;;;;4992800;28;20413;-74
2021/06/21 04:15:32;;;;;;;14.18;12.88;;;19.60;99.90;;;;;;4993752;28;20490;-74
2021/06/21 04:18:00;;;;;;;14.63;13.23;;;19.80;99.90;;;;;;4994340;28;20383;-73
2021/06/21 04:20:26;;;;;;;18.35;15.15;;;19.70;99.90;;;;;;4994060;28;20914;-73
2021/06/21 04:22:53;;;;;;;17.20;15.50;;;19.60;99.90;;;;;;4994004;28;20937;-73
2021/06/21 04:25:21;;;;;;;16.95;15.25;;;19.60;99.90;;;;;;4993595;28;20413;-74
2021/06/21 04:27:47;;;;;;;16.13;14.43;;;19.70;99.90;;;;;;4994122;28;20938;-74
2021/06/21 04:30:15;;;;;;;14.05;12.70;;;19.80;99.90;;;;;;4994068;28;20394;-74
2021/06/21 04:32:41;;;;;;;14.70;13.20;;;19.90;99.90;;;;;;4993928;28;20399;-74
2021/06/21 04:35:11;;;;;;;17.40;12.85;;;19.90;99.90;;;;;;4994029;28;20859;-74
2021/06/21 04:37:38;;;;;;;14.93;13.43;;;20.00;99.90;;;;;;4995415;28;20951;-74
2021/06/21 04:40:05;;;;;;;15.75;13.85;;;20.00;99.90;;;;;;4996487;28;20490;-74
2021/06/21 04:42:31;;;;;;;15.80;14.20;;;19.90;99.90;;;;;;4998175;28;20399;-73
2021/06/21 04:44:56;;;;;;;15.53;13.93;;;19.80;99.90;;;;;;4997216;28;20497;-74
2021/06/21 04:47:24;;;;;;;13.40;12.20;;;19.90;99.90;;;;;;4996190;28;20815;-75
2021/06/21 04:49:54;;;;;;;12.80;11.60;;;20.00;99.90;;;;;;4993998;28;20763;-74
2021/06/21 04:52:22;;;;;;;12.20;11.10;;;20.00;99.90;;;;;;4993568;28;20394;-74
2021/06/21 04:54:49;;;;;;;12.45;11.10;;;20.00;99.90;;;;;;4992973;28;20405;-74
2021/06/21 04:57:15;;;;;;;13.68;12.32;;;19.80;99.90;;;;;;4994742;28;20445;-73
2021/06/21 04:59:41;;;;;;;16.65;12.98;;;19.60;99.90;;;;;;4995096;28;20390;-75
2021/06/21 05:02:06;;;;;;;16.52;14.27;;;19.60;99.90;;;;;;4995817;28;20402;-75
2021/06/21 05:04:32;;;;;;;17.70;15.55;;;19.40;99.90;;;;;;4995395;28;20422;-75
2021/06/21 05:06:58;;;;;;;18.90;15.67;;;19.30;99.90;;;;;;5008922;28;20386;-75
2021/06/21 05:09:23;;;;;;;19.23;16.40;;;19.30;99.90;;;;;;5006945;28;20408;-75
2021/06/21 05:11:49;;;;;;;18.17;16.37;;;19.30;99.90;;;;;;5002448;28;20820;-75
2021/06/21 05:14:14;;;;;;;21.35;16.90;;;19.20;99.90;;;;;;4994456;28;20387;-76
2021/06/21 05:16:40;;;;;;;20.92;18.30;;;19.30;99.90;;;;;;4993612;28;20394;-75
2021/06/21 05:19:06;;;;;;;18.70;16.70;;;19.30;99.90;;;;;;4992814;28;20800;-74
2021/06/21 05:21:33;;;;;;;19.98;17.50;;;19.20;99.90;;;;;;4992694;28;20901;-75
2021/06/21 05:23:59;;;;;;;23.50;18.20;;;19.10;99.90;;;;;;4976780;28;20418;-75
2021/06/21 05:26:24;;;;;;;21.40;18.02;;;19.10;99.90;;;;;;4992213;28;20883;-74
2021/06/21 05:28:50;;;;;;;20.37;17.40;;;19.10;99.90;;;;;;4992500;28;20401;-75
2021/06/21 05:31:15;;;;;;;20.35;17.45;;;19.00;99.90;;;;;;4992183;28;21002;-74
2021/06/21 05:33:43;;;;;;;18.98;16.70;;;18.90;99.90;;;;;;4992138;28;20398;-74
2021/06/21 05:36:09;;;;;;;20.83;18.20;;;18.80;99.90;;;;;;5023566;28;20430;-74
2021/06/21 05:38:34;;;;;;;23.02;19.38;;;18.80;99.90;;;;;;4992685;28;20438;-73
2021/06/21 05:41:00;;;;;;;21.55;18.90;;;18.70;99.90;;;;;;5023446;28;20402;-73
2021/06/21 05:43:25;;;;;;;25.95;21.77;;;18.50;99.90;;;;;;4994229;28;20396;-73
2021/06/21 05:45:51;;;;;;;33.40;25.87;;;18.50;99.90;;;;;;5023207;28;20410;-74
2021/06/21 05:48:16;;;;;;;32.03;26.03;;;18.50;99.90;;;;;;4991471;28;20398;-74
2021/06/21 05:50:42;;;;;;;34.10;26.95;;;18.50;99.90;;;;;;4980751;28;20466;-74
2021/06/21 05:53:08;;;;;;;32.50;28.38;;;18.50;99.90;;;;;;5023029;28;20397;-75
2021/06/21 05:55:34;;;;;;;34.75;29.20;;;18.50;99.90;;;;;;4974386;28;20471;-72
2021/06/21 05:58:01;;;;;;;36.77;30.57;;;18.50;99.90;;;;;;4989719;28;20537;-72
2021/06/21 06:00:26;;;;;;;38.17;30.95;;;18.40;99.90;;;;;;4990306;28;20398;-72
2021/06/21 06:02:52;;;;;;;34.80;30.17;;;18.40;99.90;;;;;;4991151;28;20402;-73
2021/06/21 06:05:18;;;;;;;37.37;29.83;;;18.40;99.90;;;;;;4991230;28;20442;-73
2021/06/21 06:07:44;;;;;;;37.53;31.88;;;18.40;99.90;;;;;;4997651;28;20906;-73
2021/06/21 06:10:10;;;;;;;36.00;31.75;;;18.40;99.90;;;;;;4993835;28;20438;-74
2021/06/21 06:12:36;;;;;;;41.22;32.60;;;18.50;99.90;;;;;;4989304;28;20456;-74
2021/06/21 06:15:03;;;;;;;37.10;31.83;;;18.50;99.90;;;;;;4989138;28;20456;-75
2021/06/21 06:17:28;;;;;;;40.80;33.55;;;18.50;99.90;;;;;;4978341;28;20411;-74
2021/06/21 06:19:54;;;;;;;41.88;33.95;;;18.50;99.90;;;;;;4981596;28;20402;-72
2021/06/21 06:22:20;;;;;;;38.50;32.58;;;18.60;99.90;;;;;;4987326;28;20400;-72
2021/06/21 06:24:46;;;;;;;38.70;33.10;;;18.60;99.90;;;;;;4991156;28;20513;-74
2021/06/21 06:27:12;;;;;;;40.57;34.53;;;18.60;99.90;;;;;;4988265;28;20433;-76
2021/06/21 06:29:38;;;;;;;47.83;36.17;;;18.60;99.90;;;;;;4977137;28;20825;-78
2021/06/21 06:32:05;;;;;;;45.65;35.17;;;18.70;99.90;;;;;;4986267;28;20406;-76
2021/06/21 06:34:31;;;;;;;41.72;36.33;;;18.80;99.90;;;;;;4988803;28;20446;-76
2021/06/21 06:36:58;;;;;;;43.53;34.70;;;18.90;99.90;;;;;;4991712;28;20482;-76
2021/06/21 06:39:23;;;;;;;42.27;33.50;;;19.00;99.90;;;;;;4990911;28;20760;-77
2021/06/21 06:41:49;;;;;;;40.30;32.40;;;19.00;99.90;;;;;;4989414;28;20402;-76
2021/06/21 06:44:15;;;;;;;40.00;33.73;;;18.80;99.90;;;;;;4988019;28;20868;-78
2021/06/21 06:46:41;;;;;;;38.83;32.88;;;18.70;99.90;;;;;;4989380;28;20421;-76
2021/06/21 06:49:07;;;;;;;45.23;33.90;;;18.70;99.90;;;;;;4983064;28;20511;-78
2021/06/21 06:51:41;;;;;;;45.40;35.00;;;18.60;99.90;;;;;;4990762;28;20406;-77
2021/06/21 06:54:20;;;;;;;43.08;33.03;;;18.60;99.90;;;;;;4988429;28;20480;-75
2021/06/21 06:57:04;;;;;;;40.08;32.72;;;18.50;99.90;;;;;;4986901;28;20414;-77
2021/06/21 06:59:38;;;;;;;41.63;33.22;;;18.50;99.90;;;;;;4989358;28;21156;-76
2021/06/21 07:02:09;;;;;;;45.92;34.45;;;18.40;99.90;;;;;;4988961;28;20425;-76
2021/06/21 07:04:36;;;;;;;44.97;33.08;;;18.40;99.90;;;;;;4987333;28;20415;-78
2021/06/21 07:07:02;;;;;;;40.47;32.97;;;18.50;99.90;;;;;;4993169;28;20488;-77
2021/06/21 07:09:29;;;;;;;45.28;33.67;;;18.60;99.90;;;;;;4991743;28;20410;-76
2021/06/21 07:11:55;;;;;;;46.15;33.70;;;18.60;99.90;;;;;;4990380;28;20422;-78
2021/06/21 07:14:21;;;;;;;45.97;34.92;;;18.70;99.90;;;;;;4990140;28;20402;-77
2021/06/21 07:16:48;;;;;;;54.00;37.10;;;18.80;99.90;;;;;;4991108;28;20868;-76
2021/06/21 07:19:15;;;;;;;53.38;37.05;;;18.70;99.90;;;;;;4989912;28;20414;-77
2021/06/21 07:21:41;;;;;;;53.30;39.35;;;18.60;99.90;;;;;;4989097;28;20406;-76
2021/06/21 07:24:08;;;;;;;53.35;38.45;;;18.60;99.90;;;;;;4990448;28;20425;-76
2021/06/21 07:26:35;;;;;;;52.47;37.88;;;18.60;99.90;;;;;;4991133;28;20430;-77
2021/06/21 07:29:00;;;;;;;59.55;38.88;;;18.60;99.90;;;;;;4989552;28;20410;-78
2021/06/21 07:31:26;;;;;;;55.17;40.10;;;18.50;99.90;;;;;;4993285;28;20387;-77
2021/06/21 07:33:52;;;;;;;57.57;40.30;;;18.60;99.90;;;;;;4990587;28;20464;-78
2021/06/21 07:36:17;;;;;;;64.23;41.13;;;18.60;99.90;;;;;;4990728;28;20414;-78
2021/06/21 07:38:43;;;;;;;70.25;45.33;;;18.60;99.90;;;;;;4990300;28;20413;-74
2021/06/21 07:41:09;;;;;;;73.78;43.78;;;18.60;99.90;;;;;;4992200;28;20402;-75
2021/06/21 07:43:35;;;;;;;67.93;41.97;;;18.70;99.90;;;;;;4993380;28;20420;-76
2021/06/21 07:46:00;;;;;;;66.22;39.28;;;18.80;99.90;;;;;;4993562;28;20545;-77
2021/06/21 07:48:26;;;;;;;62.92;39.47;;;19.00;99.90;;;;;;4994003;28;20528;-76
2021/06/21 07:50:52;;;;;;;65.20;38.90;;;19.00;99.90;;;;;;4994219;28;20405;-76
2021/06/21 07:53:17;;;;;;;65.80;38.37;;;19.00;99.90;;;;;;4994994;28;20410;-77
2021/06/21 07:55:43;;;;;;;69.50;42.13;;;18.90;99.00;;;;;;5026485;28;20412;-76
2021/06/21 07:58:09;;;;;;;78.35;42.85;;;18.70;99.90;;;;;;4991937;28;20402;-77
2021/06/21 08:00:38;;;;;;;73.47;42.75;;;18.70;99.90;;;;;;4993856;28;20480;-76
2021/06/21 08:03:09;;;;;;;78.85;43.47;;;18.70;99.90;;;;;;4990333;28;20422;-77
2021/06/21 08:05:35;;;;;;;73.87;44.90;;;18.60;99.90;;;;;;4993912;28;20418;-76
2021/06/21 08:08:00;;;;;;;83.80;45.73;;;18.60;99.90;;;;;;4995807;28;20909;-78
2021/06/21 08:10:26;;;;;;;81.63;45.80;;;18.90;99.90;;;;;;4995288;28;20759;-76
2021/06/21 08:12:51;;;;;;;76.32;44.80;;;19.40;99.50;;;;;;4994155;28;20406;-74
2021/06/21 08:15:17;;;;;;;70.70;40.58;;;19.60;94.40;;;;;;4993969;28;20437;-75
2021/06/21 08:17:43;;;;;;;83.40;44.85;;;19.50;89.60;;;;;;4992453;28;20417;-74
2021/06/21 08:20:10;;;;;;;89.47;45.37;;;19.30;93.40;;;;;;4992622;28;20456;-75
2021/06/21 08:22:36;;;;;;;92.90;50.03;;;18.90;94.40;;;;;;4997290;28;20402;-75
2021/06/21 08:25:04;;;;;;;93.65;47.25;;;18.60;99.90;;;;;;5001025;28;20410;-76
2021/06/21 08:27:30;;;;;;;89.85;49.58;;;18.30;99.90;;;;;;4994633;28;20397;-77
2021/06/21 08:29:56;;;;;;;84.97;46.08;;;18.20;99.90;;;;;;4990981;28;20429;-76
2021/06/21 08:32:22;;;;;;;97.23;45.90;;;18.20;99.90;;;;;;4991773;28;21012;-76
2021/06/21 08:34:47;;;;;;;59.03;37.13;;;18.40;99.90;;;;;;4991315;28;20414;-76
2021/06/21 08:37:13;;;;;;;49.63;32.90;;;18.50;99.90;;;;;;5023354;28;20413;-75
2021/06/21 08:39:39;;;;;;;58.22;33.20;;;18.70;99.90;;;;;;4993397;28;20418;-75
2021/06/21 08:42:05;;;;;;;44.20;29.30;;;18.70;97.30;;;;;;4992407;28;20910;-75
2021/06/21 08:44:35;;;;;;;38.33;25.35;;;18.70;96.00;;;;;;5013361;28;20774;-73
2021/06/21 08:47:04;;;;;;;30.65;21.73;;;18.70;97.50;;;;;;4998355;28;20415;-74
2021/06/21 08:49:36;;;;;;;39.58;25.65;;;18.90;98.00;;;;;;4985058;28;20722;-74
2021/06/21 08:52:02;;;;;;;40.00;26.65;;;19.00;91.20;;;;;;4992463;28;20409;-75
2021/06/21 08:54:28;;;;;;;36.70;25.80;;;19.10;90.70;;;;;;4994190;28;20407;-75
2021/06/21 08:56:57;;;;;;;30.38;21.58;;;19.10;89.80;;;;;;4993587;28;20418;-76
2021/06/21 08:59:23;;;;;;;35.92;21.02;;;19.10;90.80;;;;;;4994345;28;20402;-77
2021/06/21 09:01:49;;;;;;;39.80;22.75;;;18.80;91.80;;;;;;4994699;28;20764;-75
2021/06/21 09:04:14;;;;;;;35.95;21.58;;;18.90;93.30;;;;;;5005920;28;20419;-78
2021/06/21 09:06:40;;;;;;;38.45;22.02;;;18.80;93.60;;;;;;5001276;28;20410;-75
2021/06/21 09:09:07;;;;;;;22.52;15.13;;;18.80;93.30;;;;;;4996657;28;20586;-75
2021/06/21 09:11:49;;;;;;;14.52;11.95;;;18.80;93.90;;;;;;4995164;28;20448;-75
2021/06/21 09:14:29;;;;;;;14.18;10.90;;;18.90;89.90;;;;;;4994692;28;20402;-77
2021/06/21 09:17:00;;;;;;;9.63;8.70;;;19.00;89.80;;;;;;4990186;28;20489;-78
2021/06/21 09:19:25;;;;;;;12.02;8.88;;;19.20;86.50;;;;;;4984611;28;20843;-76
2021/06/21 09:21:53;;;;;;;9.15;7.35;;;19.30;85.00;;;;;;4990248;28;20406;-76
2021/06/21 09:24:22;;;;;;;6.10;5.20;;;19.30;81.40;;;;;;4985242;28;20418;-76
2021/06/21 09:26:50;;;;;;;4.90;4.50;;;19.00;82.50;;;;;;4989011;28;20413;-75
2021/06/21 09:29:16;;;;;;;5.90;5.30;;;18.50;85.70;;;;;;4989224;28;20407;-75
2021/06/21 09:31:52;;;;;;;6.30;4.60;;;18.30;89.70;;;;;;4992274;28;20391;-76
2021/06/21 09:34:19;;;;;;;5.63;4.50;;;18.20;91.80;;;;;;4990605;28;20405;-76
2021/06/21 09:36:45;;;;;;;4.80;4.30;;;18.20;91.50;;;;;;4992338;28;20776;-77
2021/06/21 09:39:23;;;;;;;3.30;3.00;;;18.30;92.00;;;;;;4992439;28;20433;-76
2021/06/21 09:42:09;;;;;;;2.08;1.90;;;18.20;90.90;;;;;;4985548;28;20481;-74
2021/06/21 09:44:58;;;;;;;1.90;1.77;;;18.00;93.20;;;;;;4990826;28;20410;-75
2021/06/21 09:47:50;;;;;;;1.80;1.60;;;18.10;95.80;;;;;;4989244;28;20410;-76
2021/06/21 09:50:23;;;;;;;1.50;1.40;;;18.20;94.60;;;;;;4991779;28;20488;-75
2021/06/21 09:52:52;;;;;;;3.72;1.38;;;18.20;92.90;;;;;;4992056;28;20395;-76
2021/06/21 09:55:40;;;;;;;3.00;1.50;;;18.30;93.90;;;;;;4993884;28;20421;-78
2021/06/21 09:58:13;;;;;;;2.78;1.42;;;18.50;93.70;;;;;;4993565;28;20407;-77
2021/06/21 10:00:43;;;;;;;1.20;1.10;;;19.00;87.60;;;;;;4992735;28;20411;-77
2021/06/21 10:03:12;;;;;;;2.50;1.23;;;19.30;86.20;;;;;;5026307;28;20403;-76
2021/06/21 10:05:41;;;;;;;3.55;1.30;;;19.60;78.30;;;;;;4998061;28;20422;-76
2021/06/21 10:08:09;;;;;;;1.10;0.90;;;19.40;78.90;;;;;;4998589;28;20397;-76
2021/06/21 10:10:35;;;;;;;3.30;1.33;;;18.80;86.10;;;;;;5016437;28;20401;-77
2021/06/21 10:13:02;;;;;;;1.10;1.00;;;18.90;91.30;;;;;;5001932;28;20392;-77
2021/06/21 10:15:28;;;;;;;1.10;1.00;;;19.10;85.50;;;;;;5002759;28;20438;-78
2021/06/21 10:17:53;;;;;;;1.00;0.90;;;19.40;79.80;;;;;;4994969;28;20406;-77
2021/06/21 10:20:19;;;;;;;1.17;1.07;;;19.70;75.00;;;;;;4993345;28;20406;-76
2021/06/21 10:22:46;;;;;;;1.90;0.90;;;19.70;79.10;;;;;;4993297;28;20413;-75
2021/06/21 10:25:12;;;;;;;3.20;1.20;;;19.40;79.10;;;;;;5001088;28;20410;-76
2021/06/21 10:27:44;;;;;;;2.60;1.10;;;19.40;86.10;;;;;;4988779;28;20425;-74
2021/06/21 10:30:11;;;;;;;1.10;1.00;;;19.30;79.80;;;;;;5004846;28;20386;-75
2021/06/21 10:32:38;;;;;;;2.10;0.90;;;19.30;78.90;;;;;;4995403;28;20410;-76
2021/06/21 10:35:05;;;;;;;1.40;0.88;;;18.80;85.70;;;;;;4992305;28;20393;-77
2021/06/21 10:37:31;;;;;;;1.00;0.90;;;18.20;92.40;;;;;;4989683;28;20408;-76
2021/06/21 10:40:08;;;;;;;1.70;1.10;;;17.90;95.80;;;;;;4991900;28;20445;-77
2021/06/21 10:42:41;;;;;;;1.55;1.25;;;17.80;93.40;;;;;;5021967;28;20412;-76
2021/06/21 10:45:15;;;;;;;2.40;1.00;;;17.80;97.60;;;;;;4992284;28;20521;-79
2021/06/21 10:48:06;;;;;;;1.08;0.90;;;17.80;97.10;;;;;;4994776;28;20430;-80
2021/06/21 10:50:32;;;;;;;1.90;1.10;;;17.70;98.80;;;;;;4995721;28;20398;-78
2021/06/21 10:53:00;;;;;;;4.30;1.80;;;17.70;98.40;;;;;;4995581;28;20452;-77
2021/06/21 10:55:36;;;;;;;3.30;1.60;;;17.70;95.00;;;;;;4994148;28;20501;-80
2021/06/21 10:58:05;;;;;;;2.25;2.15;;;17.70;96.30;;;;;;4996634;28;20399;-78
2021/06/21 11:00:45;;;;;;;2.70;2.50;;;17.50;94.50;;;;;;5001433;28;20399;-78
2021/06/21 11:03:26;;;;;;;2.95;2.70;;;17.50;96.40;;;;;;5015599;28;20721;-78
2021/06/21 11:06:06;;;;;;;6.10;2.20;;;17.40;99.90;;;;;;5000072;28;20421;-79
2021/06/21 11:08:34;;;;;;;2.90;2.70;;;17.10;99.00;;;;;;5004695;28;20428;-79
2021/06/21 11:11:00;;;;;;;2.90;2.70;;;17.10;99.90;;;;;;4997220;28;20409;-77
2021/06/21 11:13:35;;;;;;;2.80;1.98;;;17.10;99.90;;;;;;4990124;28;20406;-76
2021/06/21 11:16:21;;;;;;;2.15;2.00;;;17.00;99.90;;;;;;4992990;28;20397;-75
2021/06/21 11:19:22;;;;;;;2.10;1.90;;;17.10;99.90;;;;;;5023405;28;20410;-78
2021/06/21 11:21:53;;;;;;;2.10;1.50;;;17.20;98.70;;;;;;4988567;28;20392;-75
2021/06/21 11:24:42;;;;;;;1.40;1.20;;;17.30;94.70;;;;;;4996261;28;20429;-78
2021/06/21 11:27:15;;;;;;;1.30;1.20;;;17.60;87.80;;;;;;4993553;28;20399;-76
2021/06/21 11:29:53;;;;;;;1.67;1.58;;;17.70;84.90;;;;;;4990121;28;20398;-76
2021/06/21 11:32:20;;;;;;;3.30;1.48;;;17.80;85.80;;;;;;4990369;28;20395;-74
2021/06/21 11:35:00;;;;;;;5.57;2.65;;;18.10;84.60;;;;;;4992658;28;20398;-80
2021/06/21 11:37:40;;;;;;;2.30;2.10;;;18.40;80.00;;;;;;4994523;28;20442;-77
2021/06/21 11:40:13;;;;;;;3.42;2.90;;;18.10;78.20;;;;;;5036831;28;20519;-78
2021/06/21 11:42:39;;;;;;;3.80;3.20;;;18.30;76.20;;;;;;4985598;28;20462;-77
2021/06/21 11:45:06;;;;;;;3.80;2.95;;;18.60;74.40;;;;;;4988723;28;20498;-79
2021/06/21 11:47:32;;;;;;;4.55;3.20;;;18.50;71.20;;;;;;5005594;28;20402;-78
2021/06/21 11:50:11;;;;;;;5.22;2.60;;;18.30;76.20;;;;;;5033268;28;20397;-77
2021/06/21 11:52:37;;;;;;;2.70;2.50;;;18.00;76.80;;;;;;4988874;28;20398;-78
2021/06/21 11:55:17;;;;;;;4.10;3.37;;;17.60;81.70;;;;;;4995572;28;20405;-79
2021/06/21 11:57:48;;;;;;;3.60;2.70;;;17.60;86.60;;;;;;4993607;28;20445;-77
2021/06/21 12:00:15;;;;;;;3.45;3.10;;;17.50;87.00;;;;;;4993370;28;20434;-78
2021/06/21 12:02:41;;;;;;;3.95;2.78;;;17.40;85.70;;;;;;5026496;28;20394;-76
2021/06/21 12:05:13;;;;;;;3.00;2.80;;;17.30;86.40;;;;;;5003386;28;20917;-78
2021/06/21 12:07:41;;;;;;;2.30;2.20;;;17.40;88.70;;;;;;5000059;28;20395;-78
2021/06/21 12:10:18;;;;;;;4.13;2.27;;;17.40;87.90;;;;;;5004153;28;20433;-79
2021/06/21 12:12:45;;;;;;;2.30;2.20;;;17.50;85.70;;;;;;4993174;28;20391;-77
2021/06/21 12:15:15;;;;;;;2.10;1.90;;;17.50;85.90;;;;;;4991564;28;20480;-76
2021/06/21 12:17:41;;;;;;;2.03;1.92;;;17.40;89.00;;;;;;4983397;28;20417;-78
2021/06/21 12:20:17;;;;;;;3.28;1.85;;;17.40;87.70;;;;;;4990198;28;20517;-76
2021/06/21 12:23:04;;;;;;;2.90;2.10;;;17.60;87.40;;;;;;4988634;28;20406;-77
2021/06/21 12:25:33;;;;;;;3.42;2.80;;;17.80;84.30;;;;;;4994815;28;20468;-74
2021/06/21 12:28:17;;;;;;;5.07;3.47;;;17.70;82.40;;;;;;4990548;28;20393;-75
2021/06/21 12:30:51;;;;;;;3.67;3.38;;;17.70;83.40;;;;;;4994858;28;20402;-75
2021/06/21 12:33:32;;;;;;;3.05;2.80;;;17.60;85.50;;;;;;4992803;28;20465;-76
2021/06/21 12:36:18;;;;;;;3.28;3.08;;;17.80;85.10;;;;;;4994650;28;20433;-76
2021/06/21 12:38:56;;;;;;;3.00;2.70;;;17.90;83.60;;;;;;4994504;28;20431;-75
2021/06/21 12:41:26;;;;;;;2.67;2.47;;;18.00;82.40;;;;;;4994121;28;20395;-75